Abaujszanto, Hungary
Current Conditions -  °F | °C
As of 7:30 AM on Thursday 27 Nov 2014 (Local Time) from LZKZ Reporting Station
Drizzle Drizzle  
Wind Chill: 32°   Ceiling: 100
Heat Index: 32°   Visibility: 0.18mi
Dew Point: 32°   Wind: 3mph
Humidity: 100%   Direction: 160°SSE
Pressure: 30.18"   Gusts: NA
Location:  48.28°N, 21.18°E
Report Text: LZKZ 270530Z 16003KT 140V200 0300 R01/1000U -DZ FG OVC00100/00 Q1022 NOSIG
Loading
Personal Weather Stations






























Interactive Weather Map New forecast layout! Learn more

10-Day Weather Forecast

Advertisements
Track Severe Weather on mobile